Time;durP1;ratioP1;P1;durP2;ratioP2;P2;SDS_P1;SDS_P2;PMS_P1;PMS_P2;Temp;Humidity;BMP_temperature;BMP_pressure;BME280_temperature;BME280_humidity;BME280_pressure;Samples;Min_cycle;Max_cycle;Signal;HPM_P1;HPM_P2
2024/03/03 00:02:14;;;;;;;0.30;0.20;;;9.50;99.90;;;;;;5086177;28;20190;-75
2024/03/03 00:04:40;;;;;;;0.30;0.20;;;9.50;99.90;;;;;;5088496;28;20267;-75
2024/03/03 00:07:05;;;;;;;0.30;0.20;;;9.50;99.90;;;;;;5087931;28;20419;-76
2024/03/03 00:09:34;;;;;;;0.57;0.57;;;9.50;99.90;;;;;;5087707;28;20544;-75
2024/03/03 00:12:00;;;;;;;0.30;0.20;;;9.40;99.90;;;;;;5086294;28;20180;-76
2024/03/03 00:14:26;;;;;;;22.37;20.13;;;9.50;99.90;;;;;;5086228;28;20319;-75
2024/03/03 00:16:51;;;;;;;0.30;0.20;;;9.50;99.90;;;;;;5087718;28;20366;-76
2024/03/03 00:19:17;;;;;;;0.73;0.73;;;9.50;99.90;;;;;;5085801;28;20495;-75
2024/03/03 00:21:43;;;;;;;1.00;1.00;;;9.50;99.90;;;;;;5086602;28;20180;-76
2024/03/03 00:24:09;;;;;;;0.30;0.20;;;9.50;99.90;;;;;;5087753;28;20797;-75
2024/03/03 00:26:34;;;;;;;0.50;0.50;;;9.50;99.90;;;;;;5085943;28;20591;-75
2024/03/03 00:29:00;;;;;;;4.43;4.23;;;9.60;99.90;;;;;;5086220;28;20790;-75
2024/03/03 00:31:26;;;;;;;0.30;0.20;;;9.70;99.90;;;;;;5085755;28;20469;-76
2024/03/03 00:33:52;;;;;;;0.30;0.20;;;9.70;99.90;;;;;;5088002;28;20455;-76
2024/03/03 00:36:19;;;;;;;0.30;0.20;;;9.80;99.90;;;;;;5085745;28;20573;-75
2024/03/03 00:38:45;;;;;;;0.30;0.20;;;9.80;99.90;;;;;;5087462;28;20188;-75
2024/03/03 00:41:11;;;;;;;2.40;1.52;;;9.80;99.90;;;;;;5085900;28;20270;-76
2024/03/03 00:43:37;;;;;;;0.30;0.20;;;9.80;99.90;;;;;;5087178;28;20204;-76
2024/03/03 00:46:03;;;;;;;0.30;0.20;;;9.80;99.90;;;;;;5086084;28;20516;-75
2024/03/03 00:48:28;;;;;;;0.57;0.57;;;9.90;99.90;;;;;;5086508;28;20234;-76
2024/03/03 00:50:54;;;;;;;0.30;0.30;;;9.90;99.90;;;;;;5085995;28;20408;-76
2024/03/03 00:53:23;;;;;;;0.30;0.20;;;9.90;99.90;;;;;;5086067;28;20528;-75
2024/03/03 00:55:51;;;;;;;0.30;0.20;;;10.00;99.90;;;;;;5085662;28;20243;-76
2024/03/03 00:58:17;;;;;;;0.30;0.20;;;10.00;99.90;;;;;;5086407;28;20188;-75
2024/03/03 01:00:43;;;;;;;0.30;0.20;;;10.00;99.90;;;;;;5087367;28;20958;-75
2024/03/03 01:03:09;;;;;;;0.30;0.20;;;10.00;99.90;;;;;;5085636;28;20199;-75
2024/03/03 01:05:35;;;;;;;0.30;0.20;;;10.00;99.90;;;;;;5087230;28;20169;-76
2024/03/03 01:08:01;;;;;;;0.30;0.30;;;9.90;99.90;;;;;;5086467;28;20212;-77
2024/03/03 01:10:26;;;;;;;1.77;1.67;;;10.00;99.90;;;;;;5086969;28;20410;-76
2024/03/03 01:12:52;;;;;;;0.30;0.20;;;10.00;99.90;;;;;;5086342;28;20520;-75
2024/03/03 01:15:18;;;;;;;0.30;0.20;;;10.00;99.90;;;;;;5085117;28;20261;-76
2024/03/03 01:17:44;;;;;;;0.57;0.57;;;10.00;99.90;;;;;;5086524;28;20460;-75
2024/03/03 01:20:11;;;;;;;0.30;0.30;;;10.00;99.90;;;;;;5085269;28;20270;-75
2024/03/03 01:22:36;;;;;;;0.30;0.30;;;10.00;99.90;;;;;;5086199;28;20188;-76
2024/03/03 01:25:03;;;;;;;2.00;1.90;;;9.90;99.90;;;;;;5086534;28;20203;-75
2024/03/03 01:27:28;;;;;;;0.30;0.20;;;10.00;99.90;;;;;;5086359;28;20510;-76
2024/03/03 01:29:54;;;;;;;0.30;0.20;;;10.00;99.90;;;;;;5086540;28;20302;-75
2024/03/03 01:32:22;;;;;;;0.30;0.20;;;10.00;99.90;;;;;;5084295;28;20188;-76
2024/03/03 01:34:49;;;;;;;0.30;0.20;;;9.90;99.90;;;;;;5086486;28;20257;-76
2024/03/03 01:37:17;;;;;;;0.30;0.20;;;9.90;99.90;;;;;;5086165;28;20188;-76
2024/03/03 01:39:45;;;;;;;3.30;3.20;;;9.90;99.90;;;;;;5086152;28;20180;-75
2024/03/03 01:42:10;;;;;;;1.30;1.30;;;9.90;99.90;;;;;;5085776;28;20188;-75
2024/03/03 01:44:36;;;;;;;2.20;2.10;;;9.80;99.90;;;;;;5084885;28;20180;-75
2024/03/03 01:47:02;;;;;;;0.30;0.23;;;9.90;99.90;;;;;;5085729;28;20263;-75
2024/03/03 01:49:30;;;;;;;0.30;0.20;;;9.90;99.90;;;;;;5084610;28;20391;-76
2024/03/03 01:51:56;;;;;;;0.30;0.20;;;9.90;99.90;;;;;;5085841;28;20664;-75
2024/03/03 01:54:21;;;;;;;0.30;0.20;;;9.80;99.90;;;;;;5085645;28;20200;-75
2024/03/03 01:56:49;;;;;;;0.30;0.20;;;9.80;99.90;;;;;;5084103;28;20219;-76
2024/03/03 01:59:15;;;;;;;0.30;0.20;;;9.80;99.90;;;;;;5084039;28;20575;-77
2024/03/03 02:01:42;;;;;;;0.30;0.20;;;9.80;99.90;;;;;;5085611;28;20682;-76
2024/03/03 02:04:10;;;;;;;0.80;0.80;;;9.80;99.90;;;;;;5084002;28;20206;-76
2024/03/03 02:06:38;;;;;;;0.30;0.20;;;9.80;99.90;;;;;;5085412;28;20264;-75
2024/03/03 02:09:06;;;;;;;0.50;0.50;;;9.80;99.90;;;;;;5085660;28;20565;-75
2024/03/03 02:11:32;;;;;;;1.30;1.20;;;9.80;99.90;;;;;;5084502;28;20696;-75
2024/03/03 02:13:58;;;;;;;0.30;0.20;;;9.80;99.90;;;;;;5085528;28;20303;-76
2024/03/03 02:16:23;;;;;;;0.30;0.20;;;9.70;99.90;;;;;;5085271;28;20235;-77
2024/03/03 02:18:49;;;;;;;0.30;0.20;;;9.70;99.90;;;;;;5084395;28;20463;-75
2024/03/03 02:21:15;;;;;;;0.30;0.30;;;9.70;99.90;;;;;;5085427;28;20627;-75
2024/03/03 02:23:41;;;;;;;0.30;0.20;;;9.70;99.90;;;;;;5084253;28;20232;-76
2024/03/03 02:26:06;;;;;;;0.30;0.20;;;9.70;99.90;;;;;;5084025;28;20205;-75
2024/03/03 02:28:32;;;;;;;0.67;0.67;;;9.70;99.90;;;;;;5085042;28;20196;-75
2024/03/03 02:30:58;;;;;;;0.30;0.20;;;9.70;99.90;;;;;;5085566;28;20192;-76
2024/03/03 02:33:23;;;;;;;0.33;0.33;;;9.60;99.90;;;;;;5085420;28;20774;-76
2024/03/03 02:35:49;;;;;;;0.40;0.37;;;9.60;99.90;;;;;;5085405;28;20280;-76
2024/03/03 02:38:15;;;;;;;0.30;0.20;;;9.50;99.90;;;;;;5085065;28;20196;-76
2024/03/03 02:40:40;;;;;;;0.30;0.20;;;9.50;99.90;;;;;;5084343;28;20649;-76
2024/03/03 02:43:08;;;;;;;0.30;0.20;;;9.50;99.90;;;;;;5085415;28;20746;-75
2024/03/03 02:45:33;;;;;;;0.30;0.20;;;9.50;99.90;;;;;;5085353;28;20181;-75
2024/03/03 02:47:59;;;;;;;0.30;0.20;;;9.50;99.90;;;;;;5084034;28;20200;-75
2024/03/03 02:50:24;;;;;;;0.30;0.30;;;9.50;99.90;;;;;;5085504;28;20181;-76
2024/03/03 02:52:50;;;;;;;0.30;0.20;;;9.50;99.90;;;;;;5084931;28;20211;-76
2024/03/03 02:55:16;;;;;;;0.30;0.20;;;9.40;99.90;;;;;;5084045;28;20208;-76
2024/03/03 02:57:41;;;;;;;0.30;0.20;;;9.40;99.90;;;;;;5085123;28;20196;-75
2024/03/03 03:00:11;;;;;;;0.30;0.20;;;9.30;99.90;;;;;;5083403;28;20204;-75
2024/03/03 03:02:37;;;;;;;0.30;0.20;;;9.30;99.90;;;;;;5084907;28;20204;-76
2024/03/03 03:05:03;;;;;;;3.72;3.25;;;9.30;99.90;;;;;;5084898;28;20752;-75
2024/03/03 03:07:28;;;;;;;0.30;0.20;;;9.20;99.90;;;;;;5084459;28;20247;-75
2024/03/03 03:09:54;;;;;;;0.30;0.20;;;9.20;99.90;;;;;;5084777;28;20408;-75
2024/03/03 03:12:20;;;;;;;0.30;0.20;;;9.20;99.90;;;;;;5083034;28;20630;-75
2024/03/03 03:14:46;;;;;;;0.40;0.20;;;9.20;99.90;;;;;;5084548;28;20269;-75
2024/03/03 03:17:11;;;;;;;0.30;0.20;;;9.20;99.90;;;;;;5086899;28;20514;-76
2024/03/03 03:19:37;;;;;;;0.30;0.20;;;9.20;99.90;;;;;;5088862;28;20168;-75
2024/03/03 03:22:03;;;;;;;0.30;0.20;;;9.20;99.90;;;;;;5088549;28;20255;-75
2024/03/03 03:24:31;;;;;;;0.30;0.20;;;9.20;99.90;;;;;;5089085;28;20197;-76
2024/03/03 03:26:58;;;;;;;0.30;0.20;;;9.20;99.90;;;;;;5088766;28;20910;-75
2024/03/03 03:29:23;;;;;;;0.30;0.20;;;9.20;99.90;;;;;;5087350;28;20513;-75
2024/03/03 03:31:49;;;;;;;0.30;0.20;;;9.20;99.90;;;;;;5086988;28;20226;-76
2024/03/03 03:34:15;;;;;;;0.30;0.20;;;9.20;99.90;;;;;;5087206;28;20257;-75
2024/03/03 03:36:40;;;;;;;0.30;0.20;;;9.30;99.90;;;;;;5088442;28;20216;-76
2024/03/03 03:39:12;;;;;;;0.30;0.20;;;9.30;99.90;;;;;;5088395;28;20273;-76
2024/03/03 03:41:48;;;;;;;0.30;0.20;;;9.30;99.90;;;;;;5087238;28;20188;-76
2024/03/03 03:44:15;;;;;;;0.40;0.40;;;9.30;99.90;;;;;;5088399;28;20254;-76
2024/03/03 03:46:41;;;;;;;0.30;0.22;;;9.30;99.90;;;;;;5086900;28;20184;-75
2024/03/03 03:49:11;;;;;;;0.30;0.30;;;9.30;99.90;;;;;;5086676;28;20530;-75
2024/03/03 03:51:38;;;;;;;0.30;0.20;;;9.40;99.90;;;;;;5088200;28;20169;-76
2024/03/03 03:54:05;;;;;;;0.68;0.68;;;9.30;99.90;;;;;;5086816;28;20196;-75
2024/03/03 03:56:31;;;;;;;0.30;0.20;;;9.30;99.90;;;;;;5088170;28;20577;-77
2024/03/03 03:58:58;;;;;;;0.30;0.20;;;9.40;99.90;;;;;;5086946;28;20310;-75
2024/03/03 04:01:28;;;;;;;0.30;0.20;;;9.50;99.90;;;;;;5085876;28;20180;-76
2024/03/03 04:03:57;;;;;;;0.30;0.20;;;9.40;99.90;;;;;;5086933;28;20207;-76
2024/03/03 04:06:25;;;;;;;0.30;0.20;;;9.50;99.90;;;;;;5086772;28;20179;-76
2024/03/03 04:08:51;;;;;;;0.30;0.20;;;9.50;99.90;;;;;;5087933;28;20270;-76
2024/03/03 04:11:18;;;;;;;1.10;1.08;;;9.50;99.90;;;;;;5087997;28;20176;-75
2024/03/03 04:13:46;;;;;;;0.30;0.20;;;9.40;99.90;;;;;;5087728;28;20235;-75
2024/03/03 04:16:11;;;;;;;0.30;0.20;;;9.50;99.90;;;;;;5086133;28;20685;-75
2024/03/03 04:18:38;;;;;;;0.30;0.20;;;9.50;99.90;;;;;;5087836;28;20196;-76
2024/03/03 04:21:04;;;;;;;0.30;0.20;;;9.50;99.90;;;;;;5087779;28;20759;-75
2024/03/03 04:23:29;;;;;;;0.30;0.20;;;9.40;99.90;;;;;;5087586;28;20231;-76
2024/03/03 04:25:55;;;;;;;0.30;0.20;;;9.40;99.90;;;;;;5087522;28;20380;-74
2024/03/03 04:28:21;;;;;;;0.30;0.20;;;9.40;99.90;;;;;;5087080;28;20196;-75
2024/03/03 04:30:46;;;;;;;0.40;0.40;;;9.30;99.90;;;;;;5086225;28;20645;-74
2024/03/03 04:33:12;;;;;;;0.30;0.20;;;9.30;99.90;;;;;;5087196;28;20437;-75
2024/03/03 04:35:42;;;;;;;0.30;0.20;;;9.20;99.90;;;;;;5086109;28;20455;-74
2024/03/03 04:38:08;;;;;;;2.58;2.47;;;9.20;99.90;;;;;;5086773;28;20605;-75
2024/03/03 04:40:34;;;;;;;0.30;0.20;;;9.20;99.90;;;;;;5086229;28;20235;-76
2024/03/03 04:42:59;;;;;;;0.83;0.83;;;9.20;99.90;;;;;;5087169;28;20224;-76
2024/03/03 04:45:25;;;;;;;0.30;0.20;;;9.30;99.90;;;;;;5087278;28;20181;-75
2024/03/03 04:47:51;;;;;;;0.30;0.20;;;9.30;99.90;;;;;;5086995;28;20206;-75
2024/03/03 04:50:17;;;;;;;0.40;0.40;;;9.30;99.90;;;;;;5085951;28;20176;-75
2024/03/03 04:52:42;;;;;;;0.30;0.20;;;9.30;99.90;;;;;;5086817;28;20195;-75
2024/03/03 04:55:08;;;;;;;0.30;0.20;;;9.30;99.90;;;;;;5085342;28;20181;-75
2024/03/03 04:57:33;;;;;;;0.30;0.20;;;9.30;99.90;;;;;;5086654;28;20259;-75
2024/03/03 04:59:59;;;;;;;0.30;0.20;;;9.40;99.90;;;;;;5086801;28;20234;-76
2024/03/03 05:02:25;;;;;;;0.40;0.37;;;9.40;99.90;;;;;;5085358;28;20259;-75
2024/03/03 05:04:51;;;;;;;0.30;0.20;;;9.40;99.90;;;;;;5086903;28;20249;-75
2024/03/03 05:07:17;;;;;;;0.30;0.20;;;9.30;99.90;;;;;;5085401;28;20425;-76
2024/03/03 05:09:43;;;;;;;0.30;0.20;;;9.30;99.90;;;;;;5087097;28;20546;-75
2024/03/03 05:12:09;;;;;;;0.30;0.20;;;9.30;99.90;;;;;;5086376;28;20173;-75
2024/03/03 05:14:35;;;;;;;0.30;0.20;;;9.20;99.90;;;;;;5085333;28;20420;-75
2024/03/03 05:17:01;;;;;;;0.30;0.20;;;9.20;99.90;;;;;;5084804;28;20211;-75
2024/03/03 05:19:27;;;;;;;0.30;0.20;;;9.20;99.90;;;;;;5086786;28;20781;-75
2024/03/03 05:21:53;;;;;;;0.30;0.20;;;9.20;99.90;;;;;;5086193;28;20786;-74
2024/03/03 05:24:19;;;;;;;0.30;0.20;;;9.20;99.90;;;;;;5086691;28;20196;-75
2024/03/03 05:26:44;;;;;;;0.30;0.20;;;9.20;99.90;;;;;;5084703;28;20237;-75
2024/03/03 05:29:10;;;;;;;0.30;0.20;;;9.30;99.90;;;;;;5086186;28;20196;-75
2024/03/03 05:31:43;;;;;;;0.30;0.20;;;9.30;99.90;;;;;;5084880;28;20215;-75
2024/03/03 05:34:12;;;;;;;0.30;0.30;;;9.30;99.90;;;;;;5086470;28;20200;-75
2024/03/03 05:36:47;;;;;;;0.30;0.20;;;9.40;99.90;;;;;;5085843;28;20677;-74
2024/03/03 05:39:13;;;;;;;0.30;0.20;;;9.40;99.90;;;;;;5083840;28;20195;-75
2024/03/03 05:41:40;;;;;;;0.30;0.20;;;9.40;99.90;;;;;;5085704;28;20653;-75
2024/03/03 05:44:07;;;;;;;0.30;0.20;;;9.50;99.90;;;;;;5085831;28;20211;-74
2024/03/03 05:46:34;;;;;;;0.30;0.20;;;9.50;99.90;;;;;;5084473;28;20652;-75
2024/03/03 05:49:00;;;;;;;0.30;0.30;;;9.60;99.90;;;;;;5084760;28;20236;-74
2024/03/03 05:51:25;;;;;;;1.90;1.80;;;9.60;99.90;;;;;;5084141;28;20617;-75
2024/03/03 05:53:51;;;;;;;0.30;0.30;;;9.60;99.90;;;;;;5084716;28;20674;-74
2024/03/03 05:56:17;;;;;;;0.30;0.20;;;9.60;99.90;;;;;;5085392;28;20204;-75
2024/03/03 05:58:43;;;;;;;0.30;0.20;;;9.60;99.90;;;;;;5084368;28;20471;-75
2024/03/03 06:01:09;;;;;;;4.43;4.13;;;9.60;99.90;;;;;;5085672;28;20397;-75
2024/03/03 06:03:36;;;;;;;0.60;0.60;;;9.60;99.90;;;;;;5084299;28;20494;-76
2024/03/03 06:06:02;;;;;;;0.90;0.82;;;9.60;99.90;;;;;;5084723;28;20187;-75
2024/03/03 06:08:28;;;;;;;1.33;1.23;;;9.60;99.90;;;;;;5085297;28;20305;-74
2024/03/03 06:10:54;;;;;;;0.30;0.20;;;9.60;99.90;;;;;;5085646;28;20237;-75
2024/03/03 06:13:38;;;;;;;0.30;0.20;;;9.70;99.90;;;;;;5083665;28;20232;-75
2024/03/03 06:16:04;;;;;;;0.30;0.20;;;9.70;99.90;;;;;;5084083;28;20457;-75
2024/03/03 06:18:30;;;;;;;0.30;0.30;;;9.70;99.90;;;;;;5084058;28;20227;-75
2024/03/03 06:20:58;;;;;;;0.30;0.20;;;9.70;99.90;;;;;;5085612;28;20397;-75
2024/03/03 06:23:23;;;;;;;0.30;0.20;;;9.80;99.90;;;;;;5085430;28;20283;-75
2024/03/03 06:25:50;;;;;;;0.30;0.20;;;9.80;99.90;;;;;;5084636;28;20260;-75
2024/03/03 06:28:16;;;;;;;1.67;1.67;;;9.80;99.90;;;;;;5083734;28;20225;-75
2024/03/03 06:30:42;;;;;;;0.30;0.20;;;9.80;99.90;;;;;;5084265;28;20214;-74
2024/03/03 06:33:10;;;;;;;0.30;0.20;;;9.80;99.90;;;;;;5085376;28;20219;-75
2024/03/03 06:35:36;;;;;;;0.30;0.20;;;9.80;99.90;;;;;;5084130;28;20204;-75
2024/03/03 06:38:02;;;;;;;0.43;0.43;;;9.80;99.90;;;;;;5084997;28;20558;-75
2024/03/03 06:40:28;;;;;;;0.30;0.20;;;9.80;99.90;;;;;;5085323;28;20184;-75
2024/03/03 06:42:53;;;;;;;0.53;0.53;;;9.90;99.90;;;;;;5083838;28;20469;-76
2024/03/03 06:45:19;;;;;;;0.30;0.20;;;9.90;99.90;;;;;;5084096;28;20299;-75
2024/03/03 06:47:45;;;;;;;0.40;0.20;;;9.90;99.90;;;;;;5083608;28;20485;-76
2024/03/03 06:50:10;;;;;;;0.30;0.20;;;9.90;99.90;;;;;;5085399;28;20181;-76
2024/03/03 06:52:36;;;;;;;0.30;0.20;;;10.00;99.90;;;;;;5087884;28;20533;-76
2024/03/03 06:55:02;;;;;;;0.30;0.20;;;10.00;99.90;;;;;;5087979;28;20176;-75
2024/03/03 06:57:28;;;;;;;0.30;0.20;;;10.10;99.90;;;;;;5088919;28;20267;-75
2024/03/03 06:59:53;;;;;;;0.53;0.53;;;10.10;99.90;;;;;;5089412;28;20284;-75
2024/03/03 07:02:20;;;;;;;0.30;0.20;;;10.10;99.90;;;;;;5088499;28;20598;-76
2024/03/03 07:04:45;;;;;;;0.30;0.20;;;10.20;99.90;;;;;;5088189;28;20546;-76
2024/03/03 07:07:12;;;;;;;0.30;0.20;;;10.20;99.90;;;;;;5088649;28;20169;-75
2024/03/03 07:09:38;;;;;;;0.30;0.20;;;10.30;99.90;;;;;;5086998;28;20701;-75
2024/03/03 07:12:04;;;;;;;1.70;1.60;;;10.40;99.90;;;;;;5088146;28;20238;-75
2024/03/03 07:14:32;;;;;;;0.38;0.35;;;10.50;99.90;;;;;;5089285;28;20491;-76
2024/03/03 07:16:58;;;;;;;0.30;0.30;;;10.60;99.90;;;;;;5087458;28;20253;-75
2024/03/03 07:19:23;;;;;;;0.30;0.20;;;10.70;99.90;;;;;;5087763;28;20674;-76
2024/03/03 07:21:49;;;;;;;0.30;0.20;;;10.80;99.90;;;;;;5087332;28;20416;-76
2024/03/03 07:24:15;;;;;;;0.40;0.40;;;10.80;99.90;;;;;;5087326;28;20281;-74
2024/03/03 07:26:41;;;;;;;0.70;0.70;;;10.90;99.90;;;;;;5088781;28;20401;-76
2024/03/03 07:29:08;;;;;;;0.30;0.20;;;10.90;99.90;;;;;;5088718;28;20790;-75
2024/03/03 07:31:35;;;;;;;0.30;0.20;;;10.90;99.90;;;;;;5087147;28;20462;-76
2024/03/03 07:34:01;;;;;;;0.30;0.20;;;10.90;99.90;;;;;;5088440;28;20568;-74
2024/03/03 07:36:27;;;;;;;0.30;0.20;;;10.90;99.90;;;;;;5088266;28;20209;-76
2024/03/03 07:38:54;;;;;;;0.30;0.20;;;11.00;99.90;;;;;;5088706;28;20468;-76
2024/03/03 07:41:19;;;;;;;0.30;0.20;;;11.10;99.90;;;;;;5086568;28;20173;-76
2024/03/03 07:43:46;;;;;;;0.30;0.20;;;11.30;99.90;;;;;;5088824;28;20756;-75
2024/03/03 07:46:12;;;;;;;0.30;0.20;;;11.40;99.90;;;;;;5088416;28;20169;-74
2024/03/03 07:48:38;;;;;;;0.30;0.20;;;11.50;99.90;;;;;;5087009;28;20235;-75
2024/03/03 07:51:04;;;;;;;0.40;0.40;;;11.50;99.90;;;;;;5087032;28;20417;-75
2024/03/03 07:53:31;;;;;;;0.30;0.20;;;11.50;99.90;;;;;;5088053;28;20192;-74
2024/03/03 07:55:57;;;;;;;0.30;0.20;;;11.60;99.90;;;;;;5087993;28;20456;-75
2024/03/03 07:58:22;;;;;;;0.30;0.20;;;11.70;99.90;;;;;;5086791;28;20984;-74
2024/03/03 08:00:52;;;;;;;1.00;1.00;;;11.90;99.90;;;;;;5081138;28;20425;-75
2024/03/03 08:03:18;;;;;;;0.30;0.20;;;12.00;99.90;;;;;;5065404;28;20657;-76
2024/03/03 08:05:44;;;;;;;0.30;0.20;;;12.10;99.90;;;;;;5065703;28;20434;-77
2024/03/03 08:08:10;;;;;;;0.60;0.60;;;12.20;99.90;;;;;;5065227;28;20205;-75
2024/03/03 08:10:38;;;;;;;0.40;0.40;;;12.30;99.90;;;;;;5065517;28;20260;-75
2024/03/03 08:13:04;;;;;;;0.50;0.50;;;12.30;99.90;;;;;;5064622;28;20519;-75
2024/03/03 08:15:30;;;;;;;0.47;0.47;;;12.40;99.90;;;;;;5067268;28;20978;-76
2024/03/03 08:17:55;;;;;;;0.30;0.20;;;12.50;99.90;;;;;;5065255;28;20319;-76
2024/03/03 08:20:21;;;;;;;0.30;0.20;;;12.50;99.90;;;;;;5067362;28;20185;-75
2024/03/03 08:22:47;;;;;;;0.30;0.20;;;12.50;99.90;;;;;;5066145;28;20302;-77
2024/03/03 08:25:13;;;;;;;0.30;0.20;;;12.50;99.90;;;;;;5064258;28;20582;-77
2024/03/03 08:27:40;;;;;;;0.90;0.90;;;12.60;99.90;;;;;;5065300;28;20197;-76
2024/03/03 08:30:06;;;;;;;2.57;2.47;;;12.90;99.90;;;;;;5064177;28;20661;-76
2024/03/03 08:32:32;;;;;;;0.30;0.20;;;12.90;99.90;;;;;;5064065;28;20430;-76
2024/03/03 08:35:01;;;;;;;0.30;0.20;;;12.90;99.90;;;;;;5064238;28;20772;-76
2024/03/03 08:37:27;;;;;;;0.30;0.20;;;12.80;99.90;;;;;;5066261;28;20422;-76
2024/03/03 08:39:52;;;;;;;0.87;0.87;;;12.80;99.90;;;;;;5067184;28;20420;-76
2024/03/03 08:42:18;;;;;;;0.30;0.20;;;12.70;99.90;;;;;;5066722;28;20627;-76
2024/03/03 08:44:44;;;;;;;0.30;0.20;;;12.60;99.90;;;;;;5067533;28;20537;-75
2024/03/03 08:47:10;;;;;;;0.30;0.20;;;12.50;99.90;;;;;;5065280;28;20554;-76
2024/03/03 08:49:35;;;;;;;0.30;0.20;;;12.50;99.90;;;;;;5067459;28;20177;-77
2024/03/03 08:52:02;;;;;;;0.30;0.20;;;12.50;99.90;;;;;;5067351;28;20447;-75
2024/03/03 08:54:29;;;;;;;0.50;0.47;;;12.30;99.90;;;;;;5067432;28;20197;-76
2024/03/03 08:56:56;;;;;;;0.50;0.50;;;12.30;99.90;;;;;;5066631;28;20951;-75
2024/03/03 08:59:22;;;;;;;0.93;0.93;;;12.50;99.90;;;;;;5065131;28;20714;-76
2024/03/03 09:01:48;;;;;;;1.20;1.20;;;13.00;99.90;;;;;;5065318;28;20465;-76
2024/03/03 09:04:13;;;;;;;1.60;1.50;;;13.40;99.90;;;;;;5065165;28;20442;-76
2024/03/03 09:06:39;;;;;;;0.70;0.70;;;14.30;99.90;;;;;;5066381;28;20552;-77
2024/03/03 09:09:05;;;;;;;0.50;0.50;;;15.20;99.90;;;;;;5064893;28;20284;-76
2024/03/03 09:11:33;;;;;;;0.93;0.93;;;15.80;99.90;;;;;;5065515;28;20416;-76
2024/03/03 09:14:00;;;;;;;0.30;0.20;;;15.80;99.90;;;;;;5064802;28;20459;-76
2024/03/03 09:16:25;;;;;;;0.30;0.20;;;15.50;99.90;;;;;;5066299;28;20552;-76
2024/03/03 09:18:54;;;;;;;1.27;1.13;;;15.20;99.90;;;;;;5065390;28;20868;-77
2024/03/03 09:21:21;;;;;;;0.43;0.40;;;15.00;99.90;;;;;;5066053;28;20414;-75
2024/03/03 09:23:47;;;;;;;0.70;0.70;;;14.90;99.90;;;;;;5066330;28;20477;-77
2024/03/03 09:26:13;;;;;;;2.37;1.70;;;14.90;99.90;;;;;;5065778;28;20473;-75
2024/03/03 09:28:39;;;;;;;0.30;0.30;;;14.80;99.90;;;;;;5065159;28;20628;-75
2024/03/03 09:31:05;;;;;;;0.30;0.30;;;14.70;99.90;;;;;;5064660;28;20409;-77
2024/03/03 09:33:31;;;;;;;0.70;0.70;;;14.60;99.90;;;;;;5065955;28;20468;-77
2024/03/03 09:35:57;;;;;;;2.40;2.20;;;14.50;99.90;;;;;;5064637;28;20227;-76
2024/03/03 09:38:22;;;;;;;0.40;0.37;;;14.50;99.90;;;;;;5064163;28;20725;-77
2024/03/03 09:40:48;;;;;;;0.30;0.20;;;14.40;99.90;;;;;;5066398;28;20169;-77
2024/03/03 09:43:16;;;;;;;0.30;0.20;;;14.40;99.90;;;;;;5065569;28;20670;-77
2024/03/03 09:45:43;;;;;;;0.50;0.50;;;14.40;99.90;;;;;;5066171;28;20688;-75
2024/03/03 09:48:11;;;;;;;0.33;0.30;;;14.40;99.90;;;;;;5064136;28;20453;-75
2024/03/03 09:50:37;;;;;;;0.30;0.20;;;14.40;99.90;;;;;;5066183;28;20441;-75
2024/03/03 09:53:06;;;;;;;0.40;0.40;;;14.50;99.90;;;;;;5065362;28;20466;-77
2024/03/03 09:55:34;;;;;;;0.47;0.40;;;14.60;99.90;;;;;;5065919;28;20946;-77
2024/03/03 09:57:59;;;;;;;0.30;0.20;;;14.70;99.90;;;;;;5063330;28;20452;-75
2024/03/03 10:00:25;;;;;;;0.30;0.30;;;15.00;99.90;;;;;;5063030;28;20414;-76
2024/03/03 10:02:53;;;;;;;2.20;2.10;;;15.60;99.90;;;;;;5062543;28;20262;-77
2024/03/03 10:05:20;;;;;;;0.30;0.20;;;16.20;99.90;;;;;;5062588;28;20192;-76
2024/03/03 10:07:52;;;;;;;4.73;1.07;;;16.50;99.90;;;;;;5064063;28;20862;-75
2024/03/03 10:10:25;;;;;;;1.13;0.70;;;16.60;99.90;;;;;;5062854;28;20929;-76
2024/03/03 10:12:52;;;;;;;0.30;0.20;;;16.60;99.90;;;;;;5065262;28;20477;-75
2024/03/03 10:15:22;;;;;;;0.87;0.73;;;16.50;99.90;;;;;;5064016;28;20414;-76
2024/03/03 10:17:48;;;;;;;0.30;0.20;;;16.30;99.90;;;;;;5063388;28;20454;-75
2024/03/03 10:20:14;;;;;;;1.60;1.50;;;16.20;99.90;;;;;;5063488;28;20424;-76
2024/03/03 10:22:42;;;;;;;1.07;1.07;;;16.10;99.90;;;;;;5064177;28;20460;-76
2024/03/03 10:25:13;;;;;;;0.30;0.20;;;16.00;99.90;;;;;;5064362;28;20177;-76
2024/03/03 10:27:42;;;;;;;0.30;0.20;;;16.00;99.90;;;;;;5062219;28;20446;-76
2024/03/03 10:30:09;;;;;;;0.30;0.20;;;15.90;99.90;;;;;;5063604;28;20422;-74
2024/03/03 10:33:02;;;;;;;0.30;0.20;;;16.00;99.90;;;;;;5062243;28;20439;-74
2024/03/03 10:35:28;;;;;;;0.30;0.20;;;15.90;99.90;;;;;;5063937;28;20463;-75
2024/03/03 10:38:03;;;;;;;0.60;0.60;;;15.90;99.90;;;;;;5063452;28;21105;-74
2024/03/03 10:40:31;;;;;;;2.50;2.40;;;15.90;99.90;;;;;;5062436;28;20222;-76
2024/03/03 10:42:57;;;;;;;0.50;0.50;;;15.80;99.90;;;;;;5062027;28;20450;-76
2024/03/03 10:45:23;;;;;;;2.40;1.50;;;15.80;99.90;;;;;;5062065;28;20911;-75
2024/03/03 10:47:51;;;;;;;0.50;0.50;;;15.70;99.90;;;;;;5062538;28;20277;-76
2024/03/03 10:50:22;;;;;;;0.40;0.30;;;15.80;99.90;;;;;;5065420;28;20390;-76
2024/03/03 10:52:52;;;;;;;0.30;0.20;;;15.80;99.90;;;;;;5063685;28;20974;-75
2024/03/03 10:55:18;;;;;;;0.30;0.30;;;15.80;99.90;;;;;;5063483;28;20421;-76
2024/03/03 10:57:45;;;;;;;0.30;0.20;;;15.80;99.90;;;;;;5064955;28;20439;-76
2024/03/03 11:00:22;;;;;;;0.30;0.20;;;15.70;99.90;;;;;;5064848;28;20406;-75
2024/03/03 11:02:50;;;;;;;0.50;0.50;;;15.70;99.90;;;;;;5064929;28;20994;-76
2024/03/03 11:05:17;;;;;;;0.30;0.30;;;15.70;99.90;;;;;;5064781;28;20816;-76
2024/03/03 11:07:43;;;;;;;0.93;0.87;;;15.80;99.90;;;;;;5064651;28;20446;-77
2024/03/03 11:10:09;;;;;;;0.30;0.30;;;15.90;99.90;;;;;;5063673;28;20768;-76
2024/03/03 11:12:36;;;;;;;0.30;0.20;;;15.90;99.90;;;;;;5064566;28;20504;-76
2024/03/03 11:15:07;;;;;;;0.30;0.27;;;16.00;99.90;;;;;;5064982;28;20495;-75
2024/03/03 11:17:38;;;;;;;2.30;2.20;;;16.00;99.90;;;;;;5062905;28;20737;-76
2024/03/03 11:20:07;;;;;;;0.30;0.20;;;16.10;99.90;;;;;;5064612;28;20413;-76
2024/03/03 11:22:36;;;;;;;1.13;1.13;;;16.20;99.90;;;;;;5064872;28;21001;-76
2024/03/03 11:25:05;;;;;;;4.93;1.23;;;16.30;99.90;;;;;;5064666;28;20424;-76
2024/03/03 11:27:33;;;;;;;0.30;0.20;;;16.30;99.90;;;;;;5063332;28;20530;-76
2024/03/03 11:29:59;;;;;;;1.20;1.20;;;16.40;99.90;;;;;;5064979;28;20418;-75
2024/03/03 11:32:27;;;;;;;0.47;0.47;;;16.40;99.90;;;;;;5064678;28;20469;-76
2024/03/03 11:34:54;;;;;;;0.40;0.30;;;16.50;99.90;;;;;;5063619;28;20506;-75
2024/03/03 11:37:21;;;;;;;0.30;0.20;;;16.50;99.90;;;;;;5065967;28;20882;-76
2024/03/03 11:39:53;;;;;;;0.30;0.20;;;16.60;99.90;;;;;;5067209;28;20415;-76
2024/03/03 11:42:25;;;;;;;0.30;0.20;;;16.60;99.90;;;;;;5067748;28;20462;-76
2024/03/03 11:44:52;;;;;;;1.20;1.17;;;16.60;99.90;;;;;;5068471;28;20387;-76
2024/03/03 11:47:18;;;;;;;0.30;0.20;;;16.70;99.90;;;;;;5067983;28;20418;-75
2024/03/03 11:49:44;;;;;;;0.40;0.30;;;16.80;99.90;;;;;;5068195;28;20411;-76
2024/03/03 11:52:10;;;;;;;0.43;0.43;;;17.00;99.90;;;;;;5067625;28;20431;-75
2024/03/03 11:54:41;;;;;;;0.57;0.57;;;17.10;99.90;;;;;;5068715;28;20424;-76
2024/03/03 11:57:09;;;;;;;0.30;0.30;;;17.30;99.90;;;;;;5065974;28;20474;-76
2024/03/03 11:59:43;;;;;;;1.10;1.00;;;17.30;99.90;;;;;;5068477;28;20470;-76
2024/03/03 12:02:13;;;;;;;1.67;1.57;;;17.30;99.90;;;;;;5067441;28;20394;-76
2024/03/03 12:04:42;;;;;;;0.30;0.30;;;17.50;99.90;;;;;;5068430;28;20420;-76
2024/03/03 12:07:14;;;;;;;0.30;0.20;;;17.60;99.90;;;;;;5067354;28;20436;-75
2024/03/03 12:09:43;;;;;;;0.40;0.20;;;17.80;99.90;;;;;;5068264;28;20452;-75
2024/03/03 12:12:10;;;;;;;0.70;0.70;;;17.90;99.90;;;;;;5066903;28;20463;-76
2024/03/03 12:14:42;;;;;;;0.30;0.20;;;18.10;99.90;;;;;;5067753;28;20428;-76
2024/03/03 12:17:08;;;;;;;0.30;0.20;;;18.10;99.90;;;;;;5066003;28;20522;-76
2024/03/03 12:19:34;;;;;;;2.07;1.80;;;18.20;99.90;;;;;;5067471;28;21160;-76
2024/03/03 12:22:01;;;;;;;4.10;3.03;;;18.30;99.90;;;;;;5067181;28;20406;-76
2024/03/03 12:24:27;;;;;;;0.30;0.20;;;18.30;99.90;;;;;;5066146;28;20452;-76
2024/03/03 12:26:52;;;;;;;3.97;3.67;;;18.20;99.90;;;;;;5067356;28;20393;-76
2024/03/03 12:29:18;;;;;;;0.30;0.20;;;18.20;99.90;;;;;;5067719;28;20288;-75
2024/03/03 12:31:44;;;;;;;0.30;0.20;;;18.30;99.90;;;;;;5067334;28;20763;-76
2024/03/03 12:34:10;;;;;;;0.30;0.20;;;18.40;99.90;;;;;;5067464;28;20208;-76
2024/03/03 12:36:36;;;;;;;0.30;0.30;;;18.40;99.90;;;;;;5066834;28;20453;-75
2024/03/03 12:39:07;;;;;;;0.30;0.20;;;18.50;99.90;;;;;;5067525;28;20204;-75
2024/03/03 12:41:34;;;;;;;0.30;0.20;;;18.50;99.90;;;;;;5065895;28;20716;-76
2024/03/03 12:44:00;;;;;;;0.30;0.20;;;18.50;99.90;;;;;;5067472;28;20472;-76
2024/03/03 12:46:26;;;;;;;0.53;0.53;;;18.60;99.90;;;;;;5066616;28;20413;-75
2024/03/03 12:48:53;;;;;;;0.30;0.20;;;18.70;99.90;;;;;;5089536;28;20263;-76
2024/03/03 12:51:19;;;;;;;0.30;0.20;;;18.70;99.90;;;;;;5105275;28;20491;-76